sensor_id;sensor_type;location;lat;lon;timestamp;P1;durP1;ratioP1;P2;durP2;ratioP2
63189;SDS011;49286;44.460;26.114;2023-02-15T00:01:23;51.65;;;28.77;;
63189;SDS011;49286;44.460;26.114;2023-02-15T00:03:49;56.65;;;31.95;;
63189;SDS011;49286;44.460;26.114;2023-02-15T00:06:15;59.42;;;31.33;;
63189;SDS011;49286;44.460;26.114;2023-02-15T00:08:40;57.78;;;29.65;;
63189;SDS011;49286;44.460;26.114;2023-02-15T00:11:07;43.53;;;25.50;;
63189;SDS011;49286;44.460;26.114;2023-02-15T00:13:34;59.30;;;26.73;;
63189;SDS011;49286;44.460;26.114;2023-02-15T00:16:01;49.60;;;26.65;;
63189;SDS011;49286;44.460;26.114;2023-02-15T00:18:29;61.40;;;28.60;;
63189;SDS011;49286;44.460;26.114;2023-02-15T00:20:55;65.70;;;28.00;;
63189;SDS011;49286;44.460;26.114;2023-02-15T00:23:20;58.45;;;28.52;;
63189;SDS011;49286;44.460;26.114;2023-02-15T00:25:46;62.65;;;27.15;;
63189;SDS011;49286;44.460;26.114;2023-02-15T00:28:11;50.33;;;27.83;;
63189;SDS011;49286;44.460;26.114;2023-02-15T00:30:37;58.75;;;27.40;;
63189;SDS011;49286;44.460;26.114;2023-02-15T00:33:02;57.13;;;27.98;;
63189;SDS011;49286;44.460;26.114;2023-02-15T00:35:28;44.80;;;27.08;;
63189;SDS011;49286;44.460;26.114;2023-02-15T00:37:53;66.07;;;27.88;;
63189;SDS011;49286;44.460;26.114;2023-02-15T00:40:18;66.93;;;29.98;;
63189;SDS011;49286;44.460;26.114;2023-02-15T00:42:44;47.47;;;26.38;;
63189;SDS011;49286;44.460;26.114;2023-02-15T00:45:09;47.53;;;29.15;;
63189;SDS011;49286;44.460;26.114;2023-02-15T00:47:35;54.45;;;27.67;;
63189;SDS011;49286;44.460;26.114;2023-02-15T00:50:00;51.97;;;31.30;;
63189;SDS011;49286;44.460;26.114;2023-02-15T00:52:28;54.65;;;32.17;;
63189;SDS011;49286;44.460;26.114;2023-02-15T00:54:53;53.92;;;29.50;;
63189;SDS011;49286;44.460;26.114;2023-02-15T00:57:19;53.53;;;28.80;;
63189;SDS011;49286;44.460;26.114;2023-02-15T00:59:44;47.25;;;28.60;;
63189;SDS011;49286;44.460;26.114;2023-02-15T01:02:09;63.35;;;30.40;;
63189;SDS011;49286;44.460;26.114;2023-02-15T01:04:35;59.58;;;31.58;;
63189;SDS011;49286;44.460;26.114;2023-02-15T01:07:00;53.97;;;28.40;;
63189;SDS011;49286;44.460;26.114;2023-02-15T01:09:28;56.03;;;30.48;;
63189;SDS011;49286;44.460;26.114;2023-02-15T01:11:54;47.95;;;29.67;;
63189;SDS011;49286;44.460;26.114;2023-02-15T01:14:19;69.45;;;31.63;;
63189;SDS011;49286;44.460;26.114;2023-02-15T01:16:45;65.00;;;36.60;;
63189;SDS011;49286;44.460;26.114;2023-02-15T01:19:10;72.05;;;32.63;;
63189;SDS011;49286;44.460;26.114;2023-02-15T01:21:36;63.03;;;32.63;;
63189;SDS011;49286;44.460;26.114;2023-02-15T01:24:01;56.10;;;31.80;;
63189;SDS011;49286;44.460;26.114;2023-02-15T01:26:27;68.28;;;32.22;;
63189;SDS011;49286;44.460;26.114;2023-02-15T01:28:52;61.35;;;33.28;;
63189;SDS011;49286;44.460;26.114;2023-02-15T01:31:19;45.58;;;26.83;;
63189;SDS011;49286;44.460;26.114;2023-02-15T01:33:46;53.00;;;28.70;;
63189;SDS011;49286;44.460;26.114;2023-02-15T01:36:12;68.72;;;32.00;;
63189;SDS011;49286;44.460;26.114;2023-02-15T01:38:39;55.10;;;31.05;;
63189;SDS011;49286;44.460;26.114;2023-02-15T01:41:05;52.03;;;29.08;;
63189;SDS011;49286;44.460;26.114;2023-02-15T01:43:53;52.03;;;32.50;;
63189;SDS011;49286;44.460;26.114;2023-02-15T01:49:03;55.22;;;29.90;;
63189;SDS011;49286;44.460;26.114;2023-02-15T01:51:35;72.88;;;35.70;;
63189;SDS011;49286;44.460;26.114;2023-02-15T01:54:27;72.88;;;33.28;;
63189;SDS011;49286;44.460;26.114;2023-02-15T01:56:55;54.78;;;31.13;;
63189;SDS011;49286;44.460;26.114;2023-02-15T01:59:25;85.90;;;34.63;;
63189;SDS011;49286;44.460;26.114;2023-02-15T02:01:51;65.38;;;33.90;;
63189;SDS011;49286;44.460;26.114;2023-02-15T02:04:29;75.65;;;32.28;;
63189;SDS011;49286;44.460;26.114;2023-02-15T02:07:03;59.42;;;33.55;;
63189;SDS011;49286;44.460;26.114;2023-02-15T02:09:31;48.28;;;29.27;;
63189;SDS011;49286;44.460;26.114;2023-02-15T02:11:57;55.05;;;30.90;;
63189;SDS011;49286;44.460;26.114;2023-02-15T02:14:23;60.40;;;33.33;;
63189;SDS011;49286;44.460;26.114;2023-02-15T02:16:56;68.25;;;34.42;;
63189;SDS011;49286;44.460;26.114;2023-02-15T02:44:16;62.28;;;31.48;;
63189;SDS011;49286;44.460;26.114;2023-02-15T02:47:08;67.57;;;34.95;;
63189;SDS011;49286;44.460;26.114;2023-02-15T02:49:37;58.55;;;33.25;;
63189;SDS011;49286;44.460;26.114;2023-02-15T02:52:05;53.17;;;28.58;;
63189;SDS011;49286;44.460;26.114;2023-02-15T02:54:49;71.63;;;34.67;;
63189;SDS011;49286;44.460;26.114;2023-02-15T02:57:14;55.85;;;29.50;;
63189;SDS011;49286;44.460;26.114;2023-02-15T02:59:41;69.22;;;32.45;;
63189;SDS011;49286;44.460;26.114;2023-02-15T03:02:14;62.67;;;35.30;;
63189;SDS011;49286;44.460;26.114;2023-02-15T03:04:46;49.05;;;28.20;;
63189;SDS011;49286;44.460;26.114;2023-02-15T03:07:23;74.32;;;30.33;;
63189;SDS011;49286;44.460;26.114;2023-02-15T03:09:53;56.85;;;30.20;;
63189;SDS011;49286;44.460;26.114;2023-02-15T03:12:24;52.60;;;31.35;;
63189;SDS011;49286;44.460;26.114;2023-02-15T03:15:00;60.07;;;31.17;;
63189;SDS011;49286;44.460;26.114;2023-02-15T03:17:34;54.50;;;28.25;;
63189;SDS011;49286;44.460;26.114;2023-02-15T03:20:06;61.75;;;30.73;;
63189;SDS011;49286;44.460;26.114;2023-02-15T03:22:38;58.67;;;27.00;;
63189;SDS011;49286;44.460;26.114;2023-02-15T03:25:12;62.75;;;32.28;;
63189;SDS011;49286;44.460;26.114;2023-02-15T03:27:45;50.47;;;27.80;;
63189;SDS011;49286;44.460;26.114;2023-02-15T03:30:14;49.75;;;28.15;;
63189;SDS011;49286;44.460;26.114;2023-02-15T03:32:44;44.67;;;25.77;;
63189;SDS011;49286;44.460;26.114;2023-02-15T03:35:11;49.45;;;26.80;;
63189;SDS011;49286;44.460;26.114;2023-02-15T03:40:24;50.70;;;28.10;;
63189;SDS011;49286;44.460;26.114;2023-02-15T03:43:14;43.42;;;24.77;;
63189;SDS011;49286;44.460;26.114;2023-02-15T03:45:47;55.97;;;32.05;;
63189;SDS011;49286;44.460;26.114;2023-02-15T03:48:30;53.20;;;27.17;;
63189;SDS011;49286;44.460;26.114;2023-02-15T03:51:02;58.78;;;31.17;;
63189;SDS011;49286;44.460;26.114;2023-02-15T03:53:51;51.35;;;27.77;;
63189;SDS011;49286;44.460;26.114;2023-02-15T03:56:19;46.03;;;26.88;;
63189;SDS011;49286;44.460;26.114;2023-02-15T03:58:44;44.60;;;26.75;;
63189;SDS011;49286;44.460;26.114;2023-02-15T04:01:48;49.03;;;26.70;;
63189;SDS011;49286;44.460;26.114;2023-02-15T04:06:55;50.05;;;28.48;;
63189;SDS011;49286;44.460;26.114;2023-02-15T04:09:20;53.13;;;29.05;;
63189;SDS011;49286;44.460;26.114;2023-02-15T04:12:04;60.17;;;28.73;;
63189;SDS011;49286;44.460;26.114;2023-02-15T04:14:30;59.75;;;30.60;;
63189;SDS011;49286;44.460;26.114;2023-02-15T04:17:14;48.30;;;26.17;;
63189;SDS011;49286;44.460;26.114;2023-02-15T04:19:39;56.42;;;28.25;;
63189;SDS011;49286;44.460;26.114;2023-02-15T04:22:23;45.85;;;26.00;;
63189;SDS011;49286;44.460;26.114;2023-02-15T04:25:07;52.33;;;27.15;;
63189;SDS011;49286;44.460;26.114;2023-02-15T04:27:39;52.08;;;28.27;;
63189;SDS011;49286;44.460;26.114;2023-02-15T04:30:07;46.72;;;26.75;;
63189;SDS011;49286;44.460;26.114;2023-02-15T04:32:34;43.03;;;25.80;;
63189;SDS011;49286;44.460;26.114;2023-02-15T04:35:00;53.28;;;29.02;;
63189;SDS011;49286;44.460;26.114;2023-02-15T04:37:26;57.40;;;26.48;;
63189;SDS011;49286;44.460;26.114;2023-02-15T04:39:51;48.42;;;28.00;;
63189;SDS011;49286;44.460;26.114;2023-02-15T04:42:17;56.85;;;29.48;;
63189;SDS011;49286;44.460;26.114;2023-02-15T04:44:42;51.50;;;27.80;;
63189;SDS011;49286;44.460;26.114;2023-02-15T04:47:08;44.63;;;25.48;;
63189;SDS011;49286;44.460;26.114;2023-02-15T04:49:33;68.45;;;30.10;;
63189;SDS011;49286;44.460;26.114;2023-02-15T04:51:59;46.92;;;25.75;;
63189;SDS011;49286;44.460;26.114;2023-02-15T04:54:24;48.08;;;28.17;;
63189;SDS011;49286;44.460;26.114;2023-02-15T04:56:50;37.50;;;23.90;;
63189;SDS011;49286;44.460;26.114;2023-02-15T04:59:16;48.55;;;33.08;;
63189;SDS011;49286;44.460;26.114;2023-02-15T05:01:41;72.78;;;32.45;;
63189;SDS011;49286;44.460;26.114;2023-02-15T05:04:07;49.35;;;30.10;;
63189;SDS011;49286;44.460;26.114;2023-02-15T05:06:32;37.85;;;22.13;;
63189;SDS011;49286;44.460;26.114;2023-02-15T05:08:58;41.13;;;25.23;;
63189;SDS011;49286;44.460;26.114;2023-02-15T05:11:24;49.33;;;26.08;;
63189;SDS011;49286;44.460;26.114;2023-02-15T05:13:50;44.17;;;25.17;;
63189;SDS011;49286;44.460;26.114;2023-02-15T05:16:16;48.72;;;25.88;;
63189;SDS011;49286;44.460;26.114;2023-02-15T05:18:41;48.53;;;27.73;;
63189;SDS011;49286;44.460;26.114;2023-02-15T05:21:06;62.28;;;36.05;;
63189;SDS011;49286;44.460;26.114;2023-02-15T05:23:32;48.55;;;27.52;;
63189;SDS011;49286;44.460;26.114;2023-02-15T05:25:57;54.95;;;29.38;;
63189;SDS011;49286;44.460;26.114;2023-02-15T05:28:41;40.33;;;25.23;;
63189;SDS011;49286;44.460;26.114;2023-02-15T05:31:12;49.10;;;25.45;;
63189;SDS011;49286;44.460;26.114;2023-02-15T05:33:42;41.65;;;25.50;;
63189;SDS011;49286;44.460;26.114;2023-02-15T05:36:09;48.10;;;28.73;;
63189;SDS011;49286;44.460;26.114;2023-02-15T05:38:35;50.88;;;30.23;;
63189;SDS011;49286;44.460;26.114;2023-02-15T05:41:04;60.78;;;27.90;;
63189;SDS011;49286;44.460;26.114;2023-02-15T05:43:30;47.85;;;27.45;;
63189;SDS011;49286;44.460;26.114;2023-02-15T05:45:56;50.28;;;29.02;;
63189;SDS011;49286;44.460;26.114;2023-02-15T05:48:22;44.75;;;27.20;;
63189;SDS011;49286;44.460;26.114;2023-02-15T05:50:59;55.97;;;28.90;;
63189;SDS011;49286;44.460;26.114;2023-02-15T05:53:31;48.75;;;26.52;;
63189;SDS011;49286;44.460;26.114;2023-02-15T05:55:58;56.10;;;29.73;;
63189;SDS011;49286;44.460;26.114;2023-02-15T05:58:31;43.47;;;26.05;;
63189;SDS011;49286;44.460;26.114;2023-02-15T06:00:58;51.72;;;26.92;;
63189;SDS011;49286;44.460;26.114;2023-02-15T06:03:24;57.08;;;29.52;;
63189;SDS011;49286;44.460;26.114;2023-02-15T06:05:50;45.35;;;27.30;;
63189;SDS011;49286;44.460;26.114;2023-02-15T06:08:17;41.65;;;28.25;;
63189;SDS011;49286;44.460;26.114;2023-02-15T06:10:43;44.28;;;27.00;;
63189;SDS011;49286;44.460;26.114;2023-02-15T06:13:10;49.70;;;28.90;;
63189;SDS011;49286;44.460;26.114;2023-02-15T06:15:36;51.25;;;28.17;;
63189;SDS011;49286;44.460;26.114;2023-02-15T06:18:01;49.28;;;30.33;;
63189;SDS011;49286;44.460;26.114;2023-02-15T06:20:27;49.50;;;27.88;;
63189;SDS011;49286;44.460;26.114;2023-02-15T06:22:53;45.17;;;27.27;;
63189;SDS011;49286;44.460;26.114;2023-02-15T06:25:18;52.20;;;32.00;;
63189;SDS011;49286;44.460;26.114;2023-02-15T06:27:44;59.30;;;31.42;;
63189;SDS011;49286;44.460;26.114;2023-02-15T06:30:09;51.22;;;29.85;;
63189;SDS011;49286;44.460;26.114;2023-02-15T06:32:36;48.70;;;25.92;;
63189;SDS011;49286;44.460;26.114;2023-02-15T06:35:02;51.40;;;30.52;;
63189;SDS011;49286;44.460;26.114;2023-02-15T06:37:28;53.28;;;25.15;;
63189;SDS011;49286;44.460;26.114;2023-02-15T06:39:53;78.72;;;30.17;;
63189;SDS011;49286;44.460;26.114;2023-02-15T06:42:19;55.53;;;33.88;;
63189;SDS011;49286;44.460;26.114;2023-02-15T06:44:44;50.63;;;29.08;;
63189;SDS011;49286;44.460;26.114;2023-02-15T06:47:10;45.78;;;27.70;;
63189;SDS011;49286;44.460;26.114;2023-02-15T06:49:36;47.60;;;28.58;;
63189;SDS011;49286;44.460;26.114;2023-02-15T06:52:01;50.75;;;28.50;;
63189;SDS011;49286;44.460;26.114;2023-02-15T06:54:27;58.60;;;30.33;;
63189;SDS011;49286;44.460;26.114;2023-02-15T06:56:53;44.83;;;29.20;;
63189;SDS011;49286;44.460;26.114;2023-02-15T06:59:18;52.00;;;30.92;;
63189;SDS011;49286;44.460;26.114;2023-02-15T07:01:44;62.40;;;29.85;;
63189;SDS011;49286;44.460;26.114;2023-02-15T07:04:10;52.50;;;29.33;;
63189;SDS011;49286;44.460;26.114;2023-02-15T07:06:36;50.95;;;29.23;;
63189;SDS011;49286;44.460;26.114;2023-02-15T07:09:02;61.92;;;29.98;;
63189;SDS011;49286;44.460;26.114;2023-02-15T07:11:27;44.67;;;28.95;;
63189;SDS011;49286;44.460;26.114;2023-02-15T07:14:12;50.15;;;27.90;;
63189;SDS011;49286;44.460;26.114;2023-02-15T07:16:37;42.35;;;26.70;;
63189;SDS011;49286;44.460;26.114;2023-02-15T07:19:03;44.45;;;28.40;;
63189;SDS011;49286;44.460;26.114;2023-02-15T07:21:29;38.90;;;25.60;;
63189;SDS011;49286;44.460;26.114;2023-02-15T07:23:57;46.05;;;27.25;;
63189;SDS011;49286;44.460;26.114;2023-02-15T07:26:23;50.63;;;28.02;;
63189;SDS011;49286;44.460;26.114;2023-02-15T07:28:49;53.17;;;27.15;;
63189;SDS011;49286;44.460;26.114;2023-02-15T07:31:14;46.08;;;29.08;;
63189;SDS011;49286;44.460;26.114;2023-02-15T07:33:40;50.45;;;29.83;;
63189;SDS011;49286;44.460;26.114;2023-02-15T07:36:06;47.22;;;26.95;;
63189;SDS011;49286;44.460;26.114;2023-02-15T07:38:33;51.88;;;27.85;;
63189;SDS011;49286;44.460;26.114;2023-02-15T07:41:01;48.97;;;26.52;;
63189;SDS011;49286;44.460;26.114;2023-02-15T07:43:28;43.78;;;28.17;;
63189;SDS011;49286;44.460;26.114;2023-02-15T07:45:54;46.50;;;27.80;;
63189;SDS011;49286;44.460;26.114;2023-02-15T07:48:24;50.55;;;30.73;;
63189;SDS011;49286;44.460;26.114;2023-02-15T07:50:50;48.22;;;29.70;;
63189;SDS011;49286;44.460;26.114;2023-02-15T07:53:15;52.10;;;28.08;;
63189;SDS011;49286;44.460;26.114;2023-02-15T07:55:41;59.08;;;28.42;;
63189;SDS011;49286;44.460;26.114;2023-02-15T07:58:06;51.80;;;30.73;;
63189;SDS011;49286;44.460;26.114;2023-02-15T08:00:32;48.08;;;27.67;;
63189;SDS011;49286;44.460;26.114;2023-02-15T08:03:17;43.10;;;27.20;;
63189;SDS011;49286;44.460;26.114;2023-02-15T08:05:43;49.10;;;28.75;;
63189;SDS011;49286;44.460;26.114;2023-02-15T08:08:10;84.30;;;30.80;;
63189;SDS011;49286;44.460;26.114;2023-02-15T08:10:59;58.35;;;33.00;;
63189;SDS011;49286;44.460;26.114;2023-02-15T08:13:43;82.65;;;42.97;;
63189;SDS011;49286;44.460;26.114;2023-02-15T08:16:22;89.72;;;40.17;;
63189;SDS011;49286;44.460;26.114;2023-02-15T08:19:01;109.57;;;56.38;;
63189;SDS011;49286;44.460;26.114;2023-02-15T08:21:40;61.08;;;34.00;;
63189;SDS011;49286;44.460;26.114;2023-02-15T08:24:08;77.10;;;35.22;;
63189;SDS011;49286;44.460;26.114;2023-02-15T08:26:34;69.13;;;34.45;;
63189;SDS011;49286;44.460;26.114;2023-02-15T08:29:00;74.65;;;32.67;;
63189;SDS011;49286;44.460;26.114;2023-02-15T08:31:27;72.40;;;40.72;;
63189;SDS011;49286;44.460;26.114;2023-02-15T08:33:53;51.08;;;28.60;;
63189;SDS011;49286;44.460;26.114;2023-02-15T08:36:21;57.22;;;30.10;;
63189;SDS011;49286;44.460;26.114;2023-02-15T08:38:48;60.20;;;29.30;;
63189;SDS011;49286;44.460;26.114;2023-02-15T08:43:42;38.63;;;26.38;;
63189;SDS011;49286;44.460;26.114;2023-02-15T08:46:09;41.20;;;24.40;;
63189;SDS011;49286;44.460;26.114;2023-02-15T08:48:35;50.85;;;27.88;;
63189;SDS011;49286;44.460;26.114;2023-02-15T08:51:08;56.60;;;27.52;;
63189;SDS011;49286;44.460;26.114;2023-02-15T08:53:41;51.72;;;29.80;;
63189;SDS011;49286;44.460;26.114;2023-02-15T08:56:09;62.67;;;34.53;;
63189;SDS011;49286;44.460;26.114;2023-02-15T08:58:35;43.42;;;26.92;;
63189;SDS011;49286;44.460;26.114;2023-02-15T09:01:01;66.78;;;28.77;;
63189;SDS011;49286;44.460;26.114;2023-02-15T09:03:33;53.45;;;33.45;;
63189;SDS011;49286;44.460;26.114;2023-02-15T09:05:59;48.80;;;31.15;;
63189;SDS011;49286;44.460;26.114;2023-02-15T09:08:25;60.65;;;30.35;;
63189;SDS011;49286;44.460;26.114;2023-02-15T09:10:52;47.78;;;26.60;;
63189;SDS011;49286;44.460;26.114;2023-02-15T09:13:18;38.83;;;24.33;;
63189;SDS011;49286;44.460;26.114;2023-02-15T09:15:43;37.72;;;23.23;;
63189;SDS011;49286;44.460;26.114;2023-02-15T09:18:09;51.20;;;27.48;;
63189;SDS011;49286;44.460;26.114;2023-02-15T09:20:36;40.67;;;26.63;;
63189;SDS011;49286;44.460;26.114;2023-02-15T09:23:02;47.72;;;26.80;;
63189;SDS011;49286;44.460;26.114;2023-02-15T09:25:27;46.22;;;26.13;;
63189;SDS011;49286;44.460;26.114;2023-02-15T09:27:53;39.67;;;22.85;;
63189;SDS011;49286;44.460;26.114;2023-02-15T09:30:18;32.47;;;22.30;;
63189;SDS011;49286;44.460;26.114;2023-02-15T09:32:44;49.17;;;23.23;;
63189;SDS011;49286;44.460;26.114;2023-02-15T09:35:13;39.40;;;25.35;;
63189;SDS011;49286;44.460;26.114;2023-02-15T09:37:38;30.35;;;21.33;;
63189;SDS011;49286;44.460;26.114;2023-02-15T09:40:04;35.83;;;20.80;;
63189;SDS011;49286;44.460;26.114;2023-02-15T09:42:40;40.95;;;21.35;;
63189;SDS011;49286;44.460;26.114;2023-02-15T09:45:25;58.78;;;27.63;;
63189;SDS011;49286;44.460;26.114;2023-02-15T10:16:08;26.73;;;19.07;;
63189;SDS011;49286;44.460;26.114;2023-02-15T10:21:24;30.02;;;19.70;;
63189;SDS011;49286;44.460;26.114;2023-02-15T10:27:18;31.45;;;18.48;;
63189;SDS011;49286;44.460;26.114;2023-02-15T10:29:53;28.08;;;18.48;;
63189;SDS011;49286;44.460;26.114;2023-02-15T10:32:39;28.55;;;18.83;;
63189;SDS011;49286;44.460;26.114;2023-02-15T10:35:26;27.13;;;17.92;;
63189;SDS011;49286;44.460;26.114;2023-02-15T10:40:57;26.65;;;18.13;;
63189;SDS011;49286;44.460;26.114;2023-02-15T10:51:57;23.25;;;17.42;;
63189;SDS011;49286;44.460;26.114;2023-02-15T10:58:05;27.10;;;16.10;;
63189;SDS011;49286;44.460;26.114;2023-02-15T11:01:05;22.15;;;15.43;;
63189;SDS011;49286;44.460;26.114;2023-02-15T11:03:45;22.92;;;16.83;;
63189;SDS011;49286;44.460;26.114;2023-02-15T11:06:19;20.92;;;14.48;;
63189;SDS011;49286;44.460;26.114;2023-02-15T11:08:48;24.40;;;15.38;;
63189;SDS011;49286;44.460;26.114;2023-02-15T11:11:36;29.70;;;19.42;;
63189;SDS011;49286;44.460;26.114;2023-02-15T11:14:09;21.50;;;16.23;;
63189;SDS011;49286;44.460;26.114;2023-02-15T11:17:05;22.55;;;16.13;;
63189;SDS011;49286;44.460;26.114;2023-02-15T11:19:42;28.83;;;16.80;;
63189;SDS011;49286;44.460;26.114;2023-02-15T11:22:32;25.90;;;18.70;;
63189;SDS011;49286;44.460;26.114;2023-02-15T11:24:59;29.92;;;17.92;;
63189;SDS011;49286;44.460;26.114;2023-02-15T11:27:33;35.97;;;15.82;;
63189;SDS011;49286;44.460;26.114;2023-02-15T11:32:40;25.45;;;16.95;;
63189;SDS011;49286;44.460;26.114;2023-02-15T11:40:23;20.98;;;14.15;;
63189;SDS011;49286;44.460;26.114;2023-02-15T11:42:56;16.63;;;12.85;;
63189;SDS011;49286;44.460;26.114;2023-02-15T11:45:30;19.25;;;13.45;;
63189;SDS011;49286;44.460;26.114;2023-02-15T11:48:00;22.13;;;11.70;;
63189;SDS011;49286;44.460;26.114;2023-02-15T11:50:31;22.48;;;10.82;;
63189;SDS011;49286;44.460;26.114;2023-02-15T11:53:04;21.10;;;12.00;;
63189;SDS011;49286;44.460;26.114;2023-02-15T11:55:36;16.33;;;11.07;;
63189;SDS011;49286;44.460;26.114;2023-02-15T12:01:13;14.55;;;11.52;;
63189;SDS011;49286;44.460;26.114;2023-02-15T12:03:59;20.65;;;13.07;;
63189;SDS011;49286;44.460;26.114;2023-02-15T12:06:41;20.17;;;13.43;;
63189;SDS011;49286;44.460;26.114;2023-02-15T12:09:33;24.50;;;13.25;;
63189;SDS011;49286;44.460;26.114;2023-02-15T12:15:01;25.48;;;14.20;;
63189;SDS011;49286;44.460;26.114;2023-02-15T12:17:33;23.42;;;14.77;;
63189;SDS011;49286;44.460;26.114;2023-02-15T12:20:04;16.80;;;13.27;;
63189;SDS011;49286;44.460;26.114;2023-02-15T12:22:53;16.10;;;12.50;;
63189;SDS011;49286;44.460;26.114;2023-02-15T12:27:58;16.15;;;11.38;;
63189;SDS011;49286;44.460;26.114;2023-02-15T12:30:31;18.85;;;13.27;;
63189;SDS011;49286;44.460;26.114;2023-02-15T12:35:56;22.27;;;14.27;;
63189;SDS011;49286;44.460;26.114;2023-02-15T12:38:26;21.63;;;15.02;;
63189;SDS011;49286;44.460;26.114;2023-02-15T12:40:56;22.55;;;12.95;;
63189;SDS011;49286;44.460;26.114;2023-02-15T12:43:33;21.80;;;13.65;;
63189;SDS011;49286;44.460;26.114;2023-02-15T12:46:21;21.13;;;13.30;;
63189;SDS011;49286;44.460;26.114;2023-02-15T12:49:34;23.88;;;15.40;;
63189;SDS011;49286;44.460;26.114;2023-02-15T12:54:25;22.40;;;15.57;;
63189;SDS011;49286;44.460;26.114;2023-02-15T12:56:55;22.77;;;16.30;;
63189;SDS011;49286;44.460;26.114;2023-02-15T12:59:25;28.17;;;15.82;;
63189;SDS011;49286;44.460;26.114;2023-02-15T13:01:51;29.70;;;16.70;;
63189;SDS011;49286;44.460;26.114;2023-02-15T13:04:27;23.17;;;16.50;;
63189;SDS011;49286;44.460;26.114;2023-02-15T13:07:01;25.92;;;14.05;;
63189;SDS011;49286;44.460;26.114;2023-02-15T13:12:10;24.85;;;16.08;;
63189;SDS011;49286;44.460;26.114;2023-02-15T13:14:47;24.63;;;15.73;;
63189;SDS011;49286;44.460;26.114;2023-02-15T13:17:16;22.48;;;13.77;;
63189;SDS011;49286;44.460;26.114;2023-02-15T13:19:47;22.88;;;15.10;;
63189;SDS011;49286;44.460;26.114;2023-02-15T13:22:18;23.40;;;15.75;;
63189;SDS011;49286;44.460;26.114;2023-02-15T13:25:03;21.33;;;14.80;;
63189;SDS011;49286;44.460;26.114;2023-02-15T13:27:39;31.75;;;19.00;;
63189;SDS011;49286;44.460;26.114;2023-02-15T13:30:17;37.42;;;23.52;;
63189;SDS011;49286;44.460;26.114;2023-02-15T13:32:48;31.45;;;19.45;;
63189;SDS011;49286;44.460;26.114;2023-02-15T13:35:17;32.05;;;18.08;;
63189;SDS011;49286;44.460;26.114;2023-02-15T13:40:25;28.35;;;15.90;;
63189;SDS011;49286;44.460;26.114;2023-02-15T13:54:15;38.35;;;15.85;;
63189;SDS011;49286;44.460;26.114;2023-02-15T13:59:46;26.60;;;15.70;;
63189;SDS011;49286;44.460;26.114;2023-02-15T14:05:05;22.20;;;15.55;;
63189;SDS011;49286;44.460;26.114;2023-02-15T14:08:11;27.20;;;16.35;;
63189;SDS011;49286;44.460;26.114;2023-02-15T14:15:48;33.15;;;21.23;;
63189;SDS011;49286;44.460;26.114;2023-02-15T14:18:24;28.08;;;18.80;;
63189;SDS011;49286;44.460;26.114;2023-02-15T14:21:15;26.60;;;16.95;;
63189;SDS011;49286;44.460;26.114;2023-02-15T14:29:36;23.63;;;17.05;;
63189;SDS011;49286;44.460;26.114;2023-02-15T14:32:26;20.73;;;15.40;;
63189;SDS011;49286;44.460;26.114;2023-02-15T14:34:59;25.58;;;16.98;;
63189;SDS011;49286;44.460;26.114;2023-02-15T14:37:50;22.75;;;14.98;;
63189;SDS011;49286;44.460;26.114;2023-02-15T14:43:47;27.60;;;16.58;;
63189;SDS011;49286;44.460;26.114;2023-02-15T14:48:49;24.05;;;17.15;;
63189;SDS011;49286;44.460;26.114;2023-02-15T14:54:55;26.80;;;17.13;;
63189;SDS011;49286;44.460;26.114;2023-02-15T15:02:21;30.30;;;14.35;;
63189;SDS011;49286;44.460;26.114;2023-02-15T15:04:58;20.95;;;14.60;;
63189;SDS011;49286;44.460;26.114;2023-02-15T15:25:40;21.52;;;13.27;;
63189;SDS011;49286;44.460;26.114;2023-02-15T15:28:57;19.27;;;14.60;;
63189;SDS011;49286;44.460;26.114;2023-02-15T15:31:04;17.35;;;12.32;;
63189;SDS011;49286;44.460;26.114;2023-02-15T15:42:19;14.23;;;9.55;;
63189;SDS011;49286;44.460;26.114;2023-02-15T15:50:11;16.25;;;10.98;;
63189;SDS011;49286;44.460;26.114;2023-02-15T15:52:40;26.13;;;11.95;;
63189;SDS011;49286;44.460;26.114;2023-02-15T15:55:15;21.48;;;10.98;;
63189;SDS011;49286;44.460;26.114;2023-02-15T15:57:43;19.30;;;11.63;;
63189;SDS011;49286;44.460;26.114;2023-02-15T16:00:22;19.63;;;12.55;;
63189;SDS011;49286;44.460;26.114;2023-02-15T16:02:55;27.77;;;12.13;;
63189;SDS011;49286;44.460;26.114;2023-02-15T16:05:21;20.30;;;12.75;;
63189;SDS011;49286;44.460;26.114;2023-02-15T16:07:47;20.67;;;13.07;;
63189;SDS011;49286;44.460;26.114;2023-02-15T16:10:21;22.30;;;12.18;;
63189;SDS011;49286;44.460;26.114;2023-02-15T16:12:51;23.08;;;13.00;;
63189;SDS011;49286;44.460;26.114;2023-02-15T16:15:24;20.45;;;13.77;;
63189;SDS011;49286;44.460;26.114;2023-02-15T16:17:58;19.73;;;13.15;;
63189;SDS011;49286;44.460;26.114;2023-02-15T16:28:52;30.35;;;14.82;;
63189;SDS011;49286;44.460;26.114;2023-02-15T16:31:19;23.88;;;14.48;;
63189;SDS011;49286;44.460;26.114;2023-02-15T16:33:47;24.60;;;12.88;;
63189;SDS011;49286;44.460;26.114;2023-02-15T16:36:22;28.23;;;15.13;;
63189;SDS011;49286;44.460;26.114;2023-02-15T16:41:15;31.63;;;16.10;;
63189;SDS011;49286;44.460;26.114;2023-02-15T16:43:42;24.13;;;17.05;;
63189;SDS011;49286;44.460;26.114;2023-02-15T16:46:12;34.80;;;17.83;;
63189;SDS011;49286;44.460;26.114;2023-02-15T16:48:43;33.45;;;16.95;;
63189;SDS011;49286;44.460;26.114;2023-02-15T16:51:18;35.78;;;19.13;;
63189;SDS011;49286;44.460;26.114;2023-02-15T16:53:46;37.40;;;19.02;;
63189;SDS011;49286;44.460;26.114;2023-02-15T16:56:15;29.83;;;17.60;;
63189;SDS011;49286;44.460;26.114;2023-02-15T16:58:49;40.35;;;19.27;;
63189;SDS011;49286;44.460;26.114;2023-02-15T17:01:17;36.58;;;22.95;;
63189;SDS011;49286;44.460;26.114;2023-02-15T17:03:49;44.40;;;20.90;;
63189;SDS011;49286;44.460;26.114;2023-02-15T17:06:20;68.82;;;23.55;;
63189;SDS011;49286;44.460;26.114;2023-02-15T17:08:48;46.65;;;23.13;;
63189;SDS011;49286;44.460;26.114;2023-02-15T17:11:15;55.80;;;23.95;;
63189;SDS011;49286;44.460;26.114;2023-02-15T17:16:32;67.63;;;27.80;;
63189;SDS011;49286;44.460;26.114;2023-02-15T17:19:01;75.65;;;29.23;;
63189;SDS011;49286;44.460;26.114;2023-02-15T17:21:33;85.53;;;30.90;;
63189;SDS011;49286;44.460;26.114;2023-02-15T17:24:05;71.35;;;34.00;;
63189;SDS011;49286;44.460;26.114;2023-02-15T17:26:32;41.00;;;22.70;;
63189;SDS011;49286;44.460;26.114;2023-02-15T17:29:01;67.45;;;30.00;;
63189;SDS011;49286;44.460;26.114;2023-02-15T17:31:36;56.42;;;20.70;;
63189;SDS011;49286;44.460;26.114;2023-02-15T17:34:02;60.50;;;25.42;;
63189;SDS011;49286;44.460;26.114;2023-02-15T17:36:29;50.70;;;20.77;;
63189;SDS011;49286;44.460;26.114;2023-02-15T17:41:23;46.38;;;19.60;;
63189;SDS011;49286;44.460;26.114;2023-02-15T17:43:53;36.42;;;19.63;;
63189;SDS011;49286;44.460;26.114;2023-02-15T17:46:18;75.32;;;30.73;;
63189;SDS011;49286;44.460;26.114;2023-02-15T17:48:47;57.00;;;30.20;;
63189;SDS011;49286;44.460;26.114;2023-02-15T17:51:15;56.05;;;23.48;;